Terminal Aerodrome Forecast
Issued by NWS Omaha/Valley, NE

Home | Current Version | Previous Version | Text Only | Print | Product List | Glossary On
Versions: 1 2 3 4 5 6 7 8 9 10 11 12 13 14 15 16 17 18 19 20 21 22 23 24 25 26 27 28 29 30 31 32 33 34 35 36 37 38 39 40 41 42 43 44 45 46
000
FTUS43 KOAX 211730
TAFLNK
TAF
KLNK 211730Z 2118/2218 19016G23KT 5SM BR OVC007
      TEMPO 2118/2120 4SM BR OVC005
     FM212000 18015G22KT 5SM BR OVC009
      TEMPO 2206/2208 2SM -RA BR OVC006
     FM221000 19014KT 4SM -RA BR OVC005
     FM221600 28012KT 2SM BR OVC015=

USA.gov is the U.S. government's official web portal to all federal, state and local government web resources and services.